메인 페이지
METAR-TAF:

METAR-TAF

공항 :

이바단, 나이지리아

위도: 07-26N, 경도: 003-54E, 고도: 234m

METAR: 누락

시각: 00:50 (23:50 UTC)

예보

예보는 30 시간 50분 전, 17:00시(UTC)에 발표되었습니다.
예보 대상 시간: 30일 18시부터 31일 24시까지 (UTC)
여러 방향의 바람 2kt
시정 10km 이상
고도 1100ft 상공 구름 보통
일시적
30일 19시부터 30일 24시까지 (UTC)
고도 1100ft 상공 구름 보통
고도 2000ft 상공 구름 조금, 적란운.
뇌우
확률 30%
30일 20시부터 31일 01시까지 (UTC)
시정: 5000m
고도 900ft 상공 구름 많음
고도 1900ft 상공 구름 조금, 적란운.
뇌우, 약한비
확률 30%
31일 06시부터 31일 07시까지 (UTC)
시정: 4000m
박무
전환 중
31일 08시부터 31일 10시까지 (UTC)
서남서10kt
고도 1300ft 상공 구름 많음
일시적
31일 11시부터 31일 17시까지 (UTC)
고도 1300ft 상공 구름 보통
고도 2000ft 상공 구름 조금, 적란운.
전환 중
31일 17시부터 31일 19시까지 (UTC)
여러 방향의 바람 2kt
고도 1100ft 상공 구름 보통

TAF: DNIB 301700Z 3018/3124 VRB02KT 9999 SCT011 TEMPO 3019/3024 TS SCT011 FEW020CB PROB30 3020/3101 5000 -TSRA BKN009 FEW019CB PROB30 3106/3107 4000 BR BECMG 3108/3110 24010KT BKN013 TEMPO 3111/3117 SCT013 FEW020CB BECMG 3117/3119 VRB02KT SCT011

4,000개 이상의 공항 관측 자료 및 예보 (METAR 및 TAF 보고).

지도상에서 검색 가능한 기상관측소가 노란 점과 빨간 점으로 표시되어 있습니다.

기상관측소 명을 보려면 표시 위로 마우스를 이동하세요.

날씨 관측과 예보를 보려면 클릭하세요.

지도 변경 : 확대하려면 엑스 표시가 있는 녹색 버튼, 축소하려면 빼기 표시가 있는 녹색 버튼, 다음 페이지의 지도를 보려면 녹색 화살표를 클릭하세요.


METAR-TAF: